Time;durP1;ratioP1;P1;durP2;ratioP2;P2;SDS_P1;SDS_P2;PMS_P1;PMS_P2;Temp;Humidity;BMP_temperature;BMP_pressure;BME280_temperature;BME280_humidity;BME280_pressure;Samples;Min_cycle;Max_cycle;Signal;HPM_P1;HPM_P2
2022/03/03 00:01:36;;;;;;;28.58;14.77;;;13.30;99.90;;;;;;4848125;28;112700;-64
2022/03/03 00:04:02;;;;;;;22.05;16.75;;;13.30;99.90;;;;;;4848832;29;112328;-62
2022/03/03 00:06:28;;;;;;;27.05;18.27;;;13.30;99.90;;;;;;4847640;29;114058;-64
2022/03/03 00:08:55;;;;;;;31.25;19.40;;;13.30;99.90;;;;;;4847064;29;114049;-63
2022/03/03 00:11:21;;;;;;;30.33;17.40;;;13.30;99.90;;;;;;4847966;28;112433;-64
2022/03/03 00:13:48;;;;;;;29.08;20.60;;;13.30;99.90;;;;;;4848126;28;112581;-61
2022/03/03 00:16:14;;;;;;;27.08;17.63;;;13.20;99.90;;;;;;4847404;28;114289;-61
2022/03/03 00:18:41;;;;;;;22.85;15.98;;;13.20;99.90;;;;;;4846332;29;113429;-63
2022/03/03 00:21:07;;;;;;;21.42;15.75;;;13.20;99.90;;;;;;4848377;28;112312;-64
2022/03/03 00:23:32;;;;;;;26.42;16.85;;;13.30;99.90;;;;;;4847324;29;112834;-63
2022/03/03 00:25:59;;;;;;;18.83;13.95;;;13.20;99.90;;;;;;4846983;28;114083;-63
2022/03/03 00:28:26;;;;;;;23.95;13.65;;;13.30;99.90;;;;;;4848082;28;112368;-61
2022/03/03 00:30:52;;;;;;;19.58;14.48;;;13.30;99.90;;;;;;4847834;28;112389;-63
2022/03/03 00:33:18;;;;;;;22.67;12.98;;;13.30;99.90;;;;;;4848059;28;112489;-63
2022/03/03 00:35:44;;;;;;;13.90;9.85;;;13.40;99.90;;;;;;4847622;28;115114;-62
2022/03/03 00:38:11;;;;;;;16.58;10.73;;;13.40;99.90;;;;;;4848021;29;114525;-64
2022/03/03 00:40:37;;;;;;;16.80;11.45;;;13.50;99.90;;;;;;4848298;28;112635;-63
2022/03/03 00:43:04;;;;;;;17.15;12.02;;;13.50;99.90;;;;;;4847886;29;112715;-62
2022/03/03 00:45:30;;;;;;;21.83;13.45;;;13.50;99.90;;;;;;4847364;29;113623;-63
2022/03/03 00:47:56;;;;;;;16.15;10.05;;;13.50;99.90;;;;;;4845427;28;112692;-62
2022/03/03 00:50:22;;;;;;;16.15;9.10;;;13.60;99.90;;;;;;4846093;28;113013;-63
2022/03/03 00:52:48;;;;;;;15.48;10.52;;;13.60;99.90;;;;;;4848882;28;112812;-64
2022/03/03 00:55:14;;;;;;;12.95;9.30;;;13.60;99.90;;;;;;4846424;29;113008;-62
2022/03/03 00:57:40;;;;;;;11.95;9.63;;;13.60;99.90;;;;;;4848098;29;113489;-62
2022/03/03 01:00:07;;;;;;;13.90;12.07;;;13.60;99.90;;;;;;4848639;29;112351;-62
2022/03/03 01:02:34;;;;;;;17.52;12.10;;;13.60;99.90;;;;;;4849851;29;112442;-62
2022/03/03 01:05:00;;;;;;;18.15;12.30;;;13.60;99.90;;;;;;4850738;29;112949;-62
2022/03/03 01:07:25;;;;;;;18.13;13.32;;;13.60;99.90;;;;;;4850573;29;113411;-65
2022/03/03 01:09:51;;;;;;;14.27;10.80;;;13.60;99.90;;;;;;4851609;28;112460;-62
2022/03/03 01:12:17;;;;;;;14.15;11.80;;;13.50;99.90;;;;;;4850285;29;112651;-65
2022/03/03 01:14:44;;;;;;;16.92;11.70;;;13.50;99.90;;;;;;4850228;29;114236;-63
2022/03/03 01:17:09;;;;;;;17.80;12.68;;;13.50;99.90;;;;;;4850527;29;113650;-63
2022/03/03 01:19:35;;;;;;;17.25;12.35;;;13.50;99.90;;;;;;4851095;28;112612;-62
2022/03/03 01:22:01;;;;;;;18.40;11.82;;;13.50;99.90;;;;;;4851366;29;112545;-64
2022/03/03 01:24:27;;;;;;;19.70;13.68;;;13.40;99.90;;;;;;4850044;29;113490;-62
2022/03/03 01:26:53;;;;;;;21.88;13.23;;;13.40;99.90;;;;;;4836012;29;114169;-60
2022/03/03 01:29:19;;;;;;;21.10;14.05;;;13.40;99.90;;;;;;4832479;29;112386;-62
2022/03/03 01:31:45;;;;;;;20.55;13.55;;;13.40;99.90;;;;;;4831297;29;112606;-62
2022/03/03 01:34:12;;;;;;;24.98;15.35;;;13.40;99.90;;;;;;4834631;29;114090;-61
2022/03/03 01:36:37;;;;;;;23.83;14.35;;;13.40;99.90;;;;;;4847841;29;114293;-60
2022/03/03 01:39:05;;;;;;;19.70;14.40;;;13.40;99.90;;;;;;4850644;29;112388;-62
2022/03/03 01:41:32;;;;;;;19.48;13.57;;;13.40;99.90;;;;;;4850706;28;112443;-62
2022/03/03 01:43:57;;;;;;;22.98;13.90;;;13.40;99.90;;;;;;4831271;29;114588;-65
2022/03/03 01:46:23;;;;;;;21.05;13.82;;;13.40;99.90;;;;;;4831268;29;113509;-62
2022/03/03 01:48:49;;;;;;;19.95;13.20;;;13.40;99.90;;;;;;4831228;29;112498;-63
2022/03/03 01:51:15;;;;;;;24.98;14.02;;;13.40;99.90;;;;;;4848967;29;112573;-62
2022/03/03 01:53:41;;;;;;;22.80;11.77;;;13.40;99.90;;;;;;4849873;29;113173;-61
2022/03/03 01:56:08;;;;;;;25.90;11.98;;;13.40;99.90;;;;;;4849603;29;112609;-62
2022/03/03 01:58:36;;;;;;;21.33;12.90;;;13.40;99.90;;;;;;4850586;28;112301;-61
2022/03/03 02:01:02;;;;;;;20.48;12.77;;;13.30;99.90;;;;;;4849578;29;112550;-59
2022/03/03 02:03:28;;;;;;;19.67;11.82;;;13.40;99.90;;;;;;4850058;28;112977;-60
2022/03/03 02:05:54;;;;;;;14.93;10.13;;;13.40;99.90;;;;;;4849261;29;112807;-61
2022/03/03 02:08:20;;;;;;;16.25;11.23;;;13.40;99.90;;;;;;4833307;29;112463;-60
2022/03/03 02:10:46;;;;;;;17.38;8.52;;;13.40;99.90;;;;;;4849879;29;112497;-62
2022/03/03 02:13:12;;;;;;;14.90;8.75;;;13.40;99.90;;;;;;4849685;29;112923;-60
2022/03/03 02:15:37;;;;;;;11.45;8.88;;;13.40;99.90;;;;;;4849842;29;112341;-61
2022/03/03 02:18:03;;;;;;;15.48;9.40;;;13.40;99.90;;;;;;4850151;29;112681;-62
2022/03/03 02:20:30;;;;;;;13.68;9.20;;;13.40;99.90;;;;;;4850446;29;112730;-60
2022/03/03 02:22:57;;;;;;;14.65;8.23;;;13.40;99.90;;;;;;4849003;29;114909;-61
2022/03/03 02:25:28;;;;;;;13.10;8.95;;;13.40;99.90;;;;;;4849481;29;112477;-61
2022/03/03 02:27:54;;;;;;;16.98;9.45;;;13.40;99.90;;;;;;4850062;29;112716;-61
2022/03/03 02:30:20;;;;;;;15.57;10.82;;;13.40;99.90;;;;;;4850680;29;112651;-60
2022/03/03 02:32:47;;;;;;;17.10;10.77;;;13.40;99.90;;;;;;4849052;29;114082;-60
2022/03/03 02:35:13;;;;;;;15.85;10.60;;;13.40;99.90;;;;;;4849363;28;112704;-61
2022/03/03 02:37:40;;;;;;;20.85;10.70;;;13.40;99.90;;;;;;4850288;28;112273;-62
2022/03/03 02:40:10;;;;;;;29.55;11.77;;;13.40;99.90;;;;;;4849848;29;112515;-61
2022/03/03 02:42:36;;;;;;;24.00;13.65;;;13.40;99.90;;;;;;4848871;28;113541;-63
2022/03/03 02:45:03;;;;;;;30.33;11.90;;;13.40;99.90;;;;;;4848649;28;112888;-60
2022/03/03 02:47:29;;;;;;;33.40;14.43;;;13.40;99.90;;;;;;4849211;28;112511;-62
2022/03/03 02:49:55;;;;;;;29.83;12.43;;;13.40;99.90;;;;;;4848899;29;112559;-63
2022/03/03 02:52:21;;;;;;;23.45;11.35;;;13.50;99.90;;;;;;4848418;29;114540;-60
2022/03/03 02:54:47;;;;;;;37.17;12.13;;;13.50;99.90;;;;;;4848882;29;112452;-60
2022/03/03 02:59:57;;;;;;;23.48;12.30;;;13.50;99.90;;;;;;4850229;29;112364;-61
2022/03/03 03:02:23;;;;;;;26.10;10.35;;;13.60;99.90;;;;;;4847163;29;114311;-60
2022/03/03 03:04:49;;;;;;;19.33;9.80;;;13.50;99.90;;;;;;4816078;29;116617;-64
2022/03/03 03:07:14;;;;;;;18.08;11.00;;;13.60;99.90;;;;;;4849944;29;112628;-64
2022/03/03 03:09:40;;;;;;;16.38;10.60;;;13.50;99.90;;;;;;4849115;29;112610;-61
2022/03/03 03:12:06;;;;;;;16.10;10.13;;;13.60;99.90;;;;;;4848720;29;114137;-61
2022/03/03 03:14:32;;;;;;;19.00;8.93;;;13.60;99.90;;;;;;4846536;29;113989;-61
2022/03/03 03:16:58;;;;;;;14.90;9.35;;;13.60;99.90;;;;;;4849709;29;112467;-61
2022/03/03 03:19:24;;;;;;;12.77;9.00;;;13.60;99.90;;;;;;4849314;28;112666;-61
2022/03/03 03:21:50;;;;;;;18.80;9.48;;;13.50;99.90;;;;;;4848969;29;114164;-58
2022/03/03 03:24:15;;;;;;;18.30;10.80;;;13.60;99.90;;;;;;4832322;29;112692;-60
2022/03/03 03:26:41;;;;;;;19.33;10.82;;;13.60;99.90;;;;;;4847514;29;112411;-60
2022/03/03 03:29:07;;;;;;;17.55;9.73;;;13.60;99.90;;;;;;4848721;29;112605;-63
2022/03/03 03:31:33;;;;;;;15.15;10.23;;;13.60;99.90;;;;;;4846375;29;113145;-61
2022/03/03 03:33:59;;;;;;;16.88;11.15;;;13.60;99.90;;;;;;4847944;29;112560;-60
2022/03/03 03:36:25;;;;;;;20.75;12.52;;;13.60;99.90;;;;;;4849006;29;112586;-61
2022/03/03 03:38:50;;;;;;;18.67;10.88;;;13.60;99.90;;;;;;4848502;29;112427;-61
2022/03/03 03:41:16;;;;;;;18.02;11.13;;;13.60;99.90;;;;;;4847964;29;113131;-63
2022/03/03 03:43:42;;;;;;;15.95;10.38;;;13.60;99.90;;;;;;4848398;29;112687;-62
2022/03/03 03:46:08;;;;;;;17.40;11.52;;;13.60;99.90;;;;;;4847702;29;112501;-61
2022/03/03 03:48:34;;;;;;;21.38;13.98;;;13.60;99.90;;;;;;4846893;29;112643;-61
2022/03/03 03:51:00;;;;;;;28.85;16.90;;;13.60;99.90;;;;;;4847766;28;114345;-62
2022/03/03 03:53:25;;;;;;;28.75;17.58;;;13.60;99.90;;;;;;4846402;29;114613;-62
2022/03/03 03:55:51;;;;;;;25.17;15.80;;;13.50;99.90;;;;;;4847259;29;114786;-64
2022/03/03 03:58:17;;;;;;;22.25;15.43;;;13.60;99.90;;;;;;4849141;28;112806;-61
2022/03/03 04:00:43;;;;;;;23.50;16.88;;;13.60;99.90;;;;;;4848193;28;115035;-62
2022/03/03 04:03:10;;;;;;;26.35;17.85;;;13.60;99.90;;;;;;4845342;29;112941;-61
2022/03/03 04:05:36;;;;;;;25.50;18.95;;;13.60;99.90;;;;;;4848368;28;112631;-62
2022/03/03 04:08:02;;;;;;;31.55;19.38;;;13.60;99.90;;;;;;4847053;29;112561;-55
2022/03/03 04:10:28;;;;;;;26.50;18.92;;;13.60;99.90;;;;;;4847957;29;113007;-62
2022/03/03 04:12:55;;;;;;;29.17;19.23;;;13.60;99.90;;;;;;4848076;28;113087;-61
2022/03/03 04:15:21;;;;;;;28.33;18.60;;;13.60;99.90;;;;;;4848942;28;112690;-61
2022/03/03 04:17:48;;;;;;;24.77;16.80;;;13.60;99.90;;;;;;4847217;29;112570;-60
2022/03/03 04:20:15;;;;;;;32.00;21.13;;;13.60;99.90;;;;;;4847853;28;115068;-60
2022/03/03 04:22:41;;;;;;;28.80;20.65;;;13.50;99.90;;;;;;4847537;28;113764;-59
2022/03/03 04:25:10;;;;;;;25.80;20.23;;;13.50;99.90;;;;;;4848758;28;112540;-61
2022/03/03 04:27:37;;;;;;;35.38;19.73;;;13.40;99.90;;;;;;4847178;29;112434;-61
2022/03/03 04:30:09;;;;;;;29.85;18.65;;;13.40;99.90;;;;;;4847187;28;114904;-62
2022/03/03 04:32:39;;;;;;;28.92;20.73;;;13.40;99.90;;;;;;4845275;29;113444;-59
2022/03/03 04:35:05;;;;;;;25.98;18.15;;;13.40;99.90;;;;;;4846461;29;113346;-60
2022/03/03 04:37:31;;;;;;;29.40;19.17;;;13.40;99.90;;;;;;4849425;28;112441;-60
2022/03/03 04:39:57;;;;;;;31.70;20.13;;;13.40;99.90;;;;;;4850756;29;114356;-60
2022/03/03 04:42:23;;;;;;;36.60;21.60;;;13.40;99.90;;;;;;4849814;28;113800;-60
2022/03/03 04:44:49;;;;;;;37.67;25.02;;;13.30;99.90;;;;;;4850216;29;112941;-61
2022/03/03 04:47:14;;;;;;;28.77;20.65;;;13.30;99.90;;;;;;4851693;29;112339;-61
2022/03/03 04:49:41;;;;;;;39.30;25.63;;;13.20;99.90;;;;;;4849671;29;114686;-61
2022/03/03 04:52:06;;;;;;;72.63;27.00;;;13.10;99.90;;;;;;4850188;28;112572;-62
2022/03/03 04:54:33;;;;;;;51.88;22.05;;;13.10;99.90;;;;;;4851006;28;112832;-60
2022/03/03 04:56:59;;;;;;;58.42;23.45;;;13.00;99.90;;;;;;4851629;29;112920;-58
2022/03/03 04:59:24;;;;;;;45.85;23.60;;;13.00;99.90;;;;;;4850382;29;114720;-62
2022/03/03 05:01:51;;;;;;;48.95;22.88;;;13.00;99.90;;;;;;4850665;29;113183;-61
2022/03/03 05:04:18;;;;;;;46.55;20.58;;;12.90;99.90;;;;;;4851301;29;112409;-59
2022/03/03 05:06:45;;;;;;;37.15;16.75;;;12.90;99.90;;;;;;4851254;29;112629;-59
2022/03/03 05:09:11;;;;;;;40.22;17.50;;;12.80;99.90;;;;;;4840726;23;113690;-62
2022/03/03 05:11:37;;;;;;;45.70;17.75;;;12.80;99.90;;;;;;4811765;29;112696;-62
2022/03/03 05:14:02;;;;;;;41.95;18.08;;;12.80;99.90;;;;;;4826753;29;112333;-61
2022/03/03 05:16:28;;;;;;;36.55;17.75;;;12.80;99.90;;;;;;4813245;29;112498;-63
2022/03/03 05:18:54;;;;;;;37.95;16.38;;;12.80;99.90;;;;;;4812810;29;114811;-62
2022/03/03 05:21:20;;;;;;;36.28;14.77;;;12.80;99.90;;;;;;4811126;29;114019;-62
2022/03/03 05:23:46;;;;;;;46.45;15.15;;;12.80;99.90;;;;;;4811761;29;112729;-61
2022/03/03 05:26:12;;;;;;;54.20;11.32;;;12.80;99.90;;;;;;4816699;29;112426;-62
2022/03/03 05:28:38;;;;;;;19.90;9.70;;;12.80;99.90;;;;;;4830011;29;113382;-61
2022/03/03 05:31:04;;;;;;;19.48;8.07;;;12.80;99.90;;;;;;4832327;29;112641;-62
2022/03/03 05:33:31;;;;;;;21.92;8.02;;;12.80;99.90;;;;;;4832718;29;113207;-61
2022/03/03 05:36:02;;;;;;;48.10;10.27;;;12.80;99.90;;;;;;4833175;29;112741;-61
2022/03/03 05:38:30;;;;;;;33.75;10.90;;;12.80;99.90;;;;;;4831728;29;114384;-64
2022/03/03 05:40:57;;;;;;;30.70;11.38;;;12.70;99.90;;;;;;4830650;29;113491;-60
2022/03/03 05:43:24;;;;;;;35.92;12.57;;;12.70;99.90;;;;;;4831849;29;112397;-62
2022/03/03 05:45:51;;;;;;;38.03;11.20;;;12.70;99.90;;;;;;4832359;29;112523;-61
2022/03/03 05:48:18;;;;;;;33.65;11.77;;;12.60;99.90;;;;;;4828830;29;113040;-61
2022/03/03 05:50:45;;;;;;;38.33;9.60;;;12.70;99.90;;;;;;4830444;29;114528;-63
2022/03/03 05:53:11;;;;;;;27.67;10.98;;;12.70;99.90;;;;;;4831380;29;112539;-62
2022/03/03 05:56:03;;;;;;;20.52;10.05;;;12.70;99.90;;;;;;4830619;29;112515;-63
2022/03/03 05:58:46;;;;;;;23.42;8.75;;;12.70;99.90;;;;;;4830119;29;114524;-60
2022/03/03 06:01:14;;;;;;;17.13;8.38;;;12.70;99.90;;;;;;4829892;29;113465;-62
2022/03/03 06:03:40;;;;;;;28.50;9.80;;;12.70;99.90;;;;;;4831070;29;113082;-61
2022/03/03 06:06:25;;;;;;;14.20;4.22;;;12.70;99.90;;;;;;4831261;29;112453;-62
2022/03/03 06:09:02;;;;;;;8.82;5.03;;;12.70;99.90;;;;;;4830210;29;113606;-62
2022/03/03 06:11:28;;;;;;;11.32;3.97;;;12.70;99.90;;;;;;4829955;29;112615;-62
2022/03/03 06:14:08;;;;;;;12.57;4.18;;;12.70;99.90;;;;;;4831537;29;112290;-62
2022/03/03 06:16:35;;;;;;;11.60;4.03;;;12.70;99.90;;;;;;4831922;29;112697;-64
2022/03/03 06:19:02;;;;;;;8.35;3.67;;;12.70;99.90;;;;;;4831228;29;115342;-65
2022/03/03 06:21:29;;;;;;;10.20;3.28;;;12.60;99.90;;;;;;4831119;29;113896;-62
2022/03/03 06:23:58;;;;;;;11.13;4.47;;;12.60;99.90;;;;;;4831667;29;112524;-62
2022/03/03 06:26:25;;;;;;;33.03;18.52;;;12.50;99.90;;;;;;4831899;29;112880;-63
2022/03/03 06:28:51;;;;;;;15.95;7.75;;;12.50;99.90;;;;;;4829781;29;115060;-60
2022/03/03 06:31:17;;;;;;;14.70;6.63;;;12.40;99.90;;;;;;4813191;29;113770;-62
2022/03/03 06:33:43;;;;;;;20.50;6.97;;;12.40;99.90;;;;;;4829631;29;112746;-63
2022/03/03 06:36:10;;;;;;;18.05;10.57;;;12.40;99.90;;;;;;4831718;29;112531;-60
2022/03/03 06:38:36;;;;;;;35.47;16.10;;;12.30;99.90;;;;;;4829891;29;113253;-62
2022/03/03 06:41:02;;;;;;;19.95;10.30;;;12.40;99.90;;;;;;4829764;29;113797;-61
